Fernwood, Pennsylvania
Current Conditions -  °F | °C
As of 9:54 PM on Wednesday 22 Oct 2014 (Local Time) from KPHL Reporting Station
Light Rain Light Rain  
Wind Chill: 53°   Ceiling: 4000
Heat Index: 53°   Visibility: 8mi
Dew Point: 49°   Wind: 16mph
Humidity: 86%   Direction: 330°NNW
Pressure: 29.83"   Gusts: 31mph
Location:  39.9372°N, 75.2636°W
Report Text: KPHL 230154Z 33014G27KT 8SM -RA SCT017 OVC040 12/09 A2983 RMK AO2 PK WND 34027/0147 SLP101 P0004 T01170094 $
Loading
Personal Weather Stations






























Interactive Weather Map
Tropical Storm Tracking
New forecast layout! Learn more

10-Day Weather Forecast

Advertisements
Track Severe Weather on mobile